John M Carras — SVBK5 — position and weather

sailwx.info

Track history (hours):
 
Tides and Currents Weather Stations Pressure Air Temp Water Temp Dewpoint Dewpoint Depression Visibility Wind Speed Wind Dir Waves Ship Positions

John M Carras

Last reported at 2018-Apr-07 16:19 UTC. Time now 2018-Apr-20 12:44 UTC.
Position N 17°23' E 068°45'.
Warning: this ship's position is 12 days out of date.

Length 229 m; draft 7.7 m.

Type: Ship. MMSI: 241150000.

Date/timePositionNaut miles runAvg speedWind from/ knotsBaromVisibWave heightAir tempDewpointWater temp
2018-Apr-07 16:19N 17°23' E 068°45'1113.8
2018-Apr-07 15:33N 17°34' E 068°45'113.8
2018-Apr-07 15:30N 17°34' E 068°45'813.7
2018-Apr-07 14:54N 17°43' E 068°46'513.8
2018-Apr-07 14:30N 17°48' E 068°46'1013.5
2018-Apr-07 13:46N 17°58' E 068°47'413.4
2018-Apr-07 13:28N 18°02' E 068°47'613.4
2018-Apr-07 13:00N 18°08' E 068°48'713.4
2018-Apr-07 12:30N 18°15' E 068°48'713.5
2018-Apr-07 11:59N 18°22' E 068°49'1013.5
2018-Apr-07 11:14N 18°32' E 068°49'313.6
2018-Apr-07 10:59N 18°36' E 068°49'613.6
2018-Apr-07 10:30N 18°42' E 068°50'713.6
2018-Apr-07 10:00N 18°49' E 068°50'713.7
2018-Apr-07 09:30N 18°56' E 068°50'713.8
2018-Apr-07 09:00N 19°03' E 068°51'913.6
2018-Apr-07 08:21N 19°11' E 068°51'713.5
2018-Apr-07 07:51N 19°18' E 068°52'613.5
2018-Apr-07 07:26N 19°24' E 068°52'913.6
2018-Apr-07 06:48N 19°32' E 068°53'3813.7
2018-Apr-07 04:00N 20°11' E 068°55'713.7
2018-Apr-07 03:29N 20°18' E 068°55'713.9
2018-Apr-07 02:59N 20°25' E 068°56'171 3.4
2018-Apr-05 01:12N 22°60' E 070°13'  
2018-Apr-02 17:17N 20°59' E 069°22'412.9
2018-Apr-02 17:00N 20°56' E 069°24'712.9
2018-Apr-02 16:29N 20°50' E 069°27'613.1
2018-Apr-02 16:00N 20°44' E 069°30'713.1
2018-Apr-02 15:30N 20°39' E 069°34'613.1
2018-Apr-02 15:00N 20°33' E 069°37'713.1
2018-Apr-02 14:30N 20°27' E 069°41'613.1
2018-Apr-02 14:00N 20°21' E 069°44'713.2
2018-Apr-02 13:29N 20°15' E 069°47'613.0
2018-Apr-02 13:00N 20°10' E 069°50'712.8
2018-Apr-02 12:27N 20°03' E 069°54'912.9
2018-Apr-02 11:45N 19°55' E 069°58'412.9
2018-Apr-02 11:25N 19°52' E 070°01'612.9
2018-Apr-02 10:58N 19°47' E 070°04'612.9
2018-Apr-02 10:28N 19°41' E 070°07'612.8
2018-Apr-02 10:00N 19°36' E 070°10'812.8
2018-Apr-02 09:24N 19°29' E 070°14'512.8
2018-Apr-02 09:00N 19°25' E 070°16'812.5
2018-Apr-02 08:20N 19°17' E 070°21'412.4
2018-Apr-02 07:58N 19°13' E 070°23'612.4
2018-Apr-02 07:28N 19°08' E 070°26'612.4
2018-Apr-02 07:00N 19°03' E 070°29'612.2
2018-Apr-02 06:30N 18°57' E 070°32'612.6
2018-Apr-02 06:00N 18°52' E 070°35'712.8
2018-Apr-02 05:28N 18°46' E 070°39'613.0
2018-Apr-02 04:58N 18°40' E 070°42'613.1
2018-Apr-02 04:30N 18°35' E 070°45'713.0
2018-Apr-02 03:58N 18°29' E 070°48'612.8
2018-Apr-02 03:30N 18°23' E 070°51'813.0
2018-Apr-02 02:53N 18°16' E 070°55'512.9
2018-Apr-02 02:29N 18°12' E 070°58'713.0
2018-Apr-02 01:55N 18°05' E 071°02'513.1
2018-Apr-02 01:30N 18°00' E 071°04'812.8
2018-Apr-02 00:51N 17°53' E 071°09'512.8
2018-Apr-02 00:29N 17°49' E 071°11'812.8
2018-Apr-01 23:51N 17°43' E 071°17'412.8
2018-Apr-01 23:30N 17°40' E 071°20'612.6
2018-Apr-01 23:00N 17°35' E 071°24'612.5
2018-Apr-01 22:30N 17°30' E 071°28'812.5
2018-Apr-01 21:54N 17°24' E 071°33'6210.6
2018-Apr-01 16:06N 16°27' E 071°57'112.6
2018-Apr-01 15:59N 16°26' E 071°58'  
Track history (hours):
 
Tides and Currents Weather Stations Pressure Air Temp Water Temp Dewpoint Dewpoint Depression Visibility Wind Speed Wind Dir Waves Ship Positions

John M Carras

Last reported at 2018-Apr-07 16:19 UTC. Time now 2018-Apr-20 12:44 UTC.
Position N 17°23' E 068°45'.
Warning: this ship's position is 12 days out of date.

Length 229 m; draft 7.7 m.

Type: Ship. MMSI: 241150000.

Date/timePositionNaut miles runAvg speedWind from/ knotsBaromVisibWave heightAir tempDewpointWater temp
2018-Apr-07 16:19N 17°23' E 068°45'1113.8
2018-Apr-07 15:33N 17°34' E 068°45'113.8
2018-Apr-07 15:30N 17°34' E 068°45'813.7
2018-Apr-07 14:54N 17°43' E 068°46'513.8
2018-Apr-07 14:30N 17°48' E 068°46'1013.5
2018-Apr-07 13:46N 17°58' E 068°47'413.4
2018-Apr-07 13:28N 18°02' E 068°47'613.4
2018-Apr-07 13:00N 18°08' E 068°48'713.4
2018-Apr-07 12:30N 18°15' E 068°48'713.5
2018-Apr-07 11:59N 18°22' E 068°49'1013.5
2018-Apr-07 11:14N 18°32' E 068°49'313.6
2018-Apr-07 10:59N 18°36' E 068°49'613.6
2018-Apr-07 10:30N 18°42' E 068°50'713.6
2018-Apr-07 10:00N 18°49' E 068°50'713.7
2018-Apr-07 09:30N 18°56' E 068°50'713.8
2018-Apr-07 09:00N 19°03' E 068°51'913.6
2018-Apr-07 08:21N 19°11' E 068°51'713.5
2018-Apr-07 07:51N 19°18' E 068°52'613.5
2018-Apr-07 07:26N 19°24' E 068°52'913.6
2018-Apr-07 06:48N 19°32' E 068°53'3813.7
2018-Apr-07 04:00N 20°11' E 068°55'713.7
2018-Apr-07 03:29N 20°18' E 068°55'713.9
2018-Apr-07 02:59N 20°25' E 068°56'171 3.4
2018-Apr-05 01:12N 22°60' E 070°13'  
2018-Apr-02 17:17N 20°59' E 069°22'412.9
2018-Apr-02 17:00N 20°56' E 069°24'712.9
2018-Apr-02 16:29N 20°50' E 069°27'613.1
2018-Apr-02 16:00N 20°44' E 069°30'713.1
2018-Apr-02 15:30N 20°39' E 069°34'613.1
2018-Apr-02 15:00N 20°33' E 069°37'713.1
2018-Apr-02 14:30N 20°27' E 069°41'613.1
2018-Apr-02 14:00N 20°21' E 069°44'713.2
2018-Apr-02 13:29N 20°15' E 069°47'613.0
2018-Apr-02 13:00N 20°10' E 069°50'712.8
2018-Apr-02 12:27N 20°03' E 069°54'912.9
2018-Apr-02 11:45N 19°55' E 069°58'412.9
2018-Apr-02 11:25N 19°52' E 070°01'612.9
2018-Apr-02 10:58N 19°47' E 070°04'612.9
2018-Apr-02 10:28N 19°41' E 070°07'612.8
2018-Apr-02 10:00N 19°36' E 070°10'812.8
2018-Apr-02 09:24N 19°29' E 070°14'512.8
2018-Apr-02 09:00N 19°25' E 070°16'812.5
2018-Apr-02 08:20N 19°17' E 070°21'412.4
2018-Apr-02 07:58N 19°13' E 070°23'612.4
2018-Apr-02 07:28N 19°08' E 070°26'612.4
2018-Apr-02 07:00N 19°03' E 070°29'612.2
2018-Apr-02 06:30N 18°57' E 070°32'612.6
2018-Apr-02 06:00N 18°52' E 070°35'712.8
2018-Apr-02 05:28N 18°46' E 070°39'613.0
2018-Apr-02 04:58N 18°40' E 070°42'613.1
2018-Apr-02 04:30N 18°35' E 070°45'713.0
2018-Apr-02 03:58N 18°29' E 070°48'612.8
2018-Apr-02 03:30N 18°23' E 070°51'813.0
2018-Apr-02 02:53N 18°16' E 070°55'512.9
2018-Apr-02 02:29N 18°12' E 070°58'713.0
2018-Apr-02 01:55N 18°05' E 071°02'513.1
2018-Apr-02 01:30N 18°00' E 071°04'812.8
2018-Apr-02 00:51N 17°53' E 071°09'512.8
2018-Apr-02 00:29N 17°49' E 071°11'812.8
2018-Apr-01 23:51N 17°43' E 071°17'412.8
2018-Apr-01 23:30N 17°40' E 071°20'612.6
2018-Apr-01 23:00N 17°35' E 071°24'612.5
2018-Apr-01 22:30N 17°30' E 071°28'812.5
2018-Apr-01 21:54N 17°24' E 071°33'6210.6
2018-Apr-01 16:06N 16°27' E 071°57'112.6
2018-Apr-01 15:59N 16°26' E 071°58'  

Dump ship's entire track history